LFKBLIRA

Guest
Details From LFKB - Bastia Poretta
To LIRA - CIAMPINO
Flight Number -
Tags generated
Created
Modified
Stats Distance 146 nm / 270 km
Max Altitude 15,000 ft / 4,572 m
Waypoints 4
Social Downloads 0
Likes 0
Share VATSIM

Download

Looking for another format? Having issues loading an existing format? Contact us
Advertisement - Login to hide

Notes

Basic altitude profile: - Ascent Rate: 2500ft/min - Ascent Speed: 250kts - Cruise Altitude: 35000ft - Cruise Speed: 420kts - Descent Rate: 1500ft/min - Descent Speed: 250kts Options: - Use NATs: yes - Use PACOTS: yes - Use low airways: yes - Use high airways: yes

Route

LFKB GILET P160 KISTO LIRA

ID Type Via Altitude Latitude Longitude Leg Dist Tot Dist Heading (true) Name
O LFKB APT - 0 ft / 0 m 42.55251˚ 9.48371˚ - 0 nm - Bastia Poretta
GILET FIX - 11,200 ft / 3,414 m 42.37528˚ 10.21917˚ 34 nm 34 nm 108° / 108° -
KISTO FIX P160 (AWY-LO) 15,000 ft / 4,572 m 42.33056˚ 10.38306˚ 7 nm 42 nm 110° / 110° -
O LIRA APT - 0 ft / 0 m 41.79923˚ 12.59492˚ 103 nm 145 nm 107° / 109° CIAMPINO

Altitude Profile

Advertisement - Login to hide

LFKB

Details ICAO LFKB (BIA)
Name Bastia Poretta
Region France
Timezone Europe/Paris (UTC+2.0)
Stats Elevation 25 ft / 8 m (AMSL)
Location 42.552508° 9.483709°
Runways 1
Magnetic Variation 2.532° E

METAR

LFKB 221630Z AUTO VRB03KT 5000 RA BR FEW011/// BKN025/// BKN031/// ///TCU 17/16 Q1013 TEMPO FEW020CB BECMG NSW

Decode

TAF

TAF LFKB 221400Z 2215/2315 30010KT 9999 FEW015 SCT025 BKN040 TEMPO 2215/2306 FEW020CB PROB30 TEMPO 2215/2217 3000 SHRA BR BKN014 BKN030 TEMPO 2312/2315 FEW030TCU TX22/2312Z TN14/2303Z

Decode

Departure Runways

ID Width Length Bearing (true) Bearing (mag) Surface Threshold Offset Overrun Length
16 148 ft / 45 m 8,273 ft / 2,522 m 162.83° 160.30° Concrete 0 ft / 0 m 131 ft / 40 m
34 148 ft / 45 m 8,273 ft / 2,522 m 342.84° 340.31° Concrete 0 ft / 0 m 0 ft / 0 m

LIRA

Details ICAO LIRA (CIA)
Name CIAMPINO
Region Italy
Timezone Europe/Rome (UTC+2.0)
Stats Elevation 427 ft / 130 m (AMSL)
Location 41.799228° 12.594917°
Runways 1
Magnetic Variation 3.103° E

METAR

LIRA 221620Z 15007KT 100V200 9999 FEW020 21/14 Q1014

Decode

TAF

TAF LIRA 221100Z 2212/2312 23010KT 9999 SCT030 TEMPO 2212/2216 SHRA BECMG 2216/2218 VRB05KT TEMPO 2303/2312 SHRA

Decode

Destination Runways

ID Width Length Bearing (true) Bearing (mag) Surface Threshold Offset Overrun Length
15 154 ft / 47 m 7,246 ft / 2,209 m 152.79° 149.69° Asphalt 0 ft / 0 m 0 ft / 0 m
33 154 ft / 47 m 7,246 ft / 2,209 m 332.80° 329.70° Asphalt 0 ft / 0 m 0 ft / 0 m

Approach Navaids

Runway Type Ident Frequency Range Bearing (true) Bearing (mag) Slope Elevation
15 Localiser CIA 109.90 MHz 18 nm / 33 km 152.81° 149.71° - 426 ft / 130 m (AMSL)
15 Glidescope CIA 109.90 MHz 10 nm / 19 km 152.79° 149.69° 3.00° 384 ft / 117 m (AMSL)

Popular Alternatives